KRST/RST METAR and TAF weather

Enter ICAO airport designator
Station Type Date Time Source
KRST METAR 2019/04/25 11:54 UTC NOAA

KRST 251154Z 31010KT 4SM -RA BR FEW049 BKN070 OVC085 11/09 A2979 RMK AO2 SLP088 P0001 60001 70001 T01060094 10122 20100 53012


Station Type Date Time Source
KRST Decoded METAR 2019/04/25 11:54 UTC NOAA

ROCHESTER INTERNATIONAL AIRPORT , MN, United States (KRST) 43-54N 092-30W 403M
Apr 25, 2019 - 07:54 AM EDT / 2019.04.25 1154 UTC
Wind: from the NW (310 degrees) at 12 MPH (10 KT):0
Visibility: 4 mile(s):0
Sky conditions: overcast
Weather: light rain; mist
Precipitation last hour: 0.01 inches
Temperature: 51.1 F (10.6 C)
Dew Point: 48.9 F (9.4 C)
Relative Humidity: 92%
Pressure (altimeter): 29.79 in. Hg (1008 hPa)
Pressure tendency: 0.04 inches (1.2 hPa) higher than three hours ago
ob: KRST 251154Z 31010KT 4SM -RA BR FEW049 BKN070 OVC085 11/09 A2979 RMK AO2 SLP088 P0001 60001 70001 T01060094 10122 20100 53012
cycle: 12

Station Type Date Time Source
KRST TAF 2019/04/25 12:22 UTC NOAA

TAF KRST 251120Z 2512/2612 31007KT P6SM -SHRA OVC080
TEMPO 2512/2516 5SM -SHRA BKN035
FM251800 33012KT P6SM SCT080
FM260000 32010KT P6SM FEW080
FM260600 31012KT P6SM SKC WS020/34040KT

Example: see airport list